createdAt,value
2018-06-07T00:00:49.776Z,985.17
2018-06-07T00:01:59.789Z,985.18
2018-06-07T00:03:09.262Z,985.22
2018-06-07T00:04:19.009Z,985.2
2018-06-07T00:05:28.764Z,985.19
2018-06-07T00:06:38.514Z,985.19
2018-06-07T00:07:47.726Z,985.19
2018-06-07T00:08:57.469Z,985.18
2018-06-07T00:10:06.944Z,985.19
2018-06-07T00:11:16.948Z,985.16
2018-06-07T00:12:26.425Z,985.18
2018-06-07T00:13:36.166Z,985.2
2018-06-07T00:14:46.170Z,985.18
2018-06-07T00:15:56.178Z,985.19
2018-06-07T00:17:08.192Z,985.16
2018-06-07T00:18:17.934Z,985.17
2018-06-07T00:19:27.677Z,985.17
2018-06-07T00:20:37.154Z,985.18
2018-06-07T00:21:46.898Z,985.2
2018-06-07T00:22:56.638Z,985.18
2018-06-07T00:24:06.385Z,985.22
2018-06-07T00:25:16.390Z,985.24
2018-06-07T00:26:26.132Z,985.21
2018-06-07T00:27:36.140Z,985.22
2018-06-07T00:28:45.877Z,985.26
2018-06-07T00:29:55.883Z,985.25
2018-06-07T00:31:05.361Z,985.24
2018-06-07T00:32:15.107Z,985.21
2018-06-07T00:33:24.582Z,985.25
2018-06-07T00:34:36.624Z,985.2
2018-06-07T00:35:46.103Z,985.26
2018-06-07T00:36:55.848Z,985.24
2018-06-07T00:38:05.586Z,985.21
2018-06-07T00:39:15.361Z,985.21
2018-06-07T00:40:24.970Z,985.23
2018-06-07T00:41:34.442Z,985.18
2018-06-07T00:42:44.455Z,985.17
2018-06-07T00:43:54.192Z,985.2
2018-06-07T00:45:04.268Z,985.16
2018-06-07T00:46:14.279Z,985.17
2018-06-07T00:47:24.173Z,985.16
2018-06-07T00:48:34.189Z,985.17
2018-06-07T00:49:44.224Z,985.17
2018-06-07T00:50:54.231Z,985.17
2018-06-07T00:52:03.981Z,985.17
2018-06-07T00:53:13.455Z,985.2
2018-06-07T00:54:23.468Z,985.17
2018-06-07T00:55:32.944Z,985.14
2018-06-07T00:56:42.957Z,985.19
2018-06-07T00:57:52.957Z,985.14
2018-06-07T00:59:02.704Z,985.15
2018-06-07T01:00:12.704Z,985.19
2018-06-07T01:01:22.719Z,985.18
2018-06-07T01:02:32.470Z,985.15
2018-06-07T01:03:42.219Z,985.17
2018-06-07T01:04:52.223Z,985.15
2018-06-07T01:06:01.695Z,985.15
2018-06-07T01:07:11.706Z,985.16
2018-06-07T01:08:21.711Z,985.12
2018-06-07T01:09:31.720Z,985.12
2018-06-07T01:10:41.462Z,985.13
2018-06-07T01:11:51.500Z,985.17
2018-06-07T01:13:01.311Z,985.15
2018-06-07T01:14:11.327Z,985.11
2018-06-07T01:15:21.067Z,985.14
2018-06-07T01:16:30.806Z,985.14
2018-06-07T01:17:40.545Z,985.13
2018-06-07T01:18:50.557Z,985.12
2018-06-07T01:20:00.040Z,985.09
2018-06-07T01:21:09.604Z,985.09
2018-06-07T01:22:19.347Z,985.07
2018-06-07T01:23:29.352Z,985.08
2018-06-07T01:24:38.834Z,985.05
2018-06-07T01:25:48.843Z,985.06
2018-06-07T01:26:58.846Z,985.07
2018-06-07T01:28:08.317Z,985.08
2018-06-07T01:29:18.333Z,985.08
2018-06-07T01:30:28.066Z,985.07
2018-06-07T01:31:38.065Z,985.08
2018-06-07T01:32:48.072Z,985.09
2018-06-07T01:33:57.817Z,985.06
2018-06-07T01:35:07.023Z,985.06
2018-06-07T01:36:16.763Z,985.03
2018-06-07T01:37:26.581Z,985.05
2018-06-07T01:38:38.597Z,985.05
2018-06-07T01:39:48.607Z,985.03
2018-06-07T01:40:58.616Z,985.03
2018-06-07T01:42:08.356Z,985.06
2018-06-07T01:43:18.380Z,984.99
2018-06-07T01:44:27.861Z,985.02
2018-06-07T01:45:37.880Z,985.02
2018-06-07T01:46:47.354Z,985.01
2018-06-07T01:47:56.833Z,984.99
2018-06-07T01:49:06.310Z,984.99
2018-06-07T01:50:16.050Z,985.01
2018-06-07T01:51:26.056Z,984.99
2018-06-07T01:52:35.269Z,985
2018-06-07T01:53:45.007Z,985.01
2018-06-07T01:54:55.019Z,985.01
2018-06-07T01:56:06.762Z,985.03
2018-06-07T01:57:16.806Z,985.01
2018-06-07T01:58:26.812Z,985.02
2018-06-07T01:59:36.816Z,985.06
2018-06-07T02:00:46.555Z,985.05
2018-06-07T02:01:56.566Z,985.02
2018-06-07T02:03:05.773Z,985.01
2018-06-07T02:04:15.244Z,985.03
2018-06-07T02:05:25.258Z,985.06
2018-06-07T02:06:35.261Z,985.04
2018-06-07T02:07:45.270Z,985.06
2018-06-07T02:08:54.744Z,985.08
2018-06-07T02:10:04.798Z,985.08
2018-06-07T02:11:14.540Z,985.07
2018-06-07T02:12:24.555Z,985.12
2018-06-07T02:13:34.564Z,985.13
2018-06-07T02:14:44.303Z,985.13
2018-06-07T02:15:54.036Z,985.17
2018-06-07T02:17:04.044Z,985.13
2018-06-07T02:18:13.784Z,985.18
2018-06-07T02:19:23.800Z,985.17
2018-06-07T02:20:33.281Z,985.13
2018-06-07T02:21:42.489Z,985.16
2018-06-07T02:22:52.495Z,985.13
2018-06-07T02:24:02.237Z,985.12
2018-06-07T02:25:11.983Z,985.12
2018-06-07T02:26:21.990Z,985.1
2018-06-07T02:27:31.730Z,985.05
2018-06-07T02:28:41.202Z,985.11
2018-06-07T02:29:51.207Z,985.09
2018-06-07T02:31:00.946Z,985.1
2018-06-07T02:32:10.690Z,985.15
2018-06-07T02:33:20.188Z,985.11
2018-06-07T02:34:29.659Z,985.15
2018-06-07T02:35:39.145Z,985.15
2018-06-07T02:36:49.164Z,985.16
2018-06-07T02:37:59.238Z,985.18
2018-06-07T02:39:09.623Z,985.16
2018-06-07T02:40:19.635Z,985.22
2018-06-07T02:41:29.377Z,985.2
2018-06-07T02:42:39.124Z,985.17
2018-06-07T02:43:48.329Z,985.17
2018-06-07T02:44:58.084Z,985.17
2018-06-07T02:46:08.101Z,985.14
2018-06-07T02:47:18.113Z,985.13
2018-06-07T02:48:27.879Z,985.15
2018-06-07T02:49:37.625Z,985.14
2018-06-07T02:50:47.369Z,985.16
2018-06-07T02:51:57.381Z,985.13
2018-06-07T02:53:06.857Z,985.14
2018-06-07T02:54:16.600Z,985.14
2018-06-07T02:55:26.349Z,985.12
2018-06-07T02:56:36.357Z,985.13
2018-06-07T02:57:46.099Z,985.16
2018-06-07T02:58:56.103Z,985.16
2018-06-07T03:00:05.578Z,985.14
2018-06-07T03:04:23.388Z,985.18
2018-06-07T03:05:32.861Z,985.15
2018-06-07T03:06:42.873Z,985.14
2018-06-07T03:07:52.353Z,985.1
2018-06-07T03:09:02.092Z,985.09
2018-06-07T03:10:11.570Z,985.1
2018-06-07T03:11:21.318Z,985.07
2018-06-07T03:12:31.327Z,985.08
2018-06-07T03:13:41.335Z,985.12
2018-06-07T03:14:51.345Z,985.08
2018-06-07T03:16:01.089Z,985.12
2018-06-07T03:17:11.101Z,985.07
2018-06-07T03:18:20.574Z,985.1
2018-06-07T03:19:30.314Z,985.08
2018-06-07T03:20:40.053Z,985.1
2018-06-07T03:21:49.792Z,985.1
2018-06-07T03:22:59.275Z,985.14
2018-06-07T03:24:09.017Z,985.09
2018-06-07T03:25:18.221Z,985.11
2018-06-07T03:26:28.230Z,985.07
2018-06-07T03:27:37.711Z,985.11
2018-06-07T03:28:47.455Z,985.09
2018-06-07T03:29:56.928Z,985.1
2018-06-07T03:31:06.683Z,985.05
2018-06-07T03:32:16.697Z,985.04
2018-06-07T03:33:26.707Z,985.05
2018-06-07T03:34:36.447Z,985.04
2018-06-07T03:35:45.919Z,985.05
2018-06-07T03:36:55.925Z,985.09
2018-06-07T03:38:05.940Z,985.11
2018-06-07T03:39:15.954Z,985.15
2018-06-07T03:40:25.693Z,985.08
2018-06-07T03:41:35.697Z,985.12
2018-06-07T03:42:45.447Z,985.11
2018-06-07T03:43:55.185Z,985.12
2018-06-07T03:45:04.926Z,985.13
2018-06-07T03:46:14.666Z,985.11
2018-06-07T03:47:24.670Z,985.12
2018-06-07T03:48:34.685Z,985.11
2018-06-07T03:49:44.427Z,985.15
2018-06-07T03:50:54.438Z,985.17
2018-06-07T03:52:04.456Z,985.17
2018-06-07T03:53:13.673Z,985.16
2018-06-07T03:54:23.412Z,985.19
2018-06-07T03:55:33.159Z,985.19
2018-06-07T03:56:42.921Z,985.19
2018-06-07T03:57:52.662Z,985.16
2018-06-07T03:59:02.668Z,985.22
2018-06-07T04:00:12.677Z,985.23
2018-06-07T04:01:22.425Z,985.21
2018-06-07T04:02:32.174Z,985.21
2018-06-07T04:03:41.917Z,985.24
2018-06-07T04:04:51.929Z,985.25
2018-06-07T04:06:01.673Z,985.24
2018-06-07T04:07:11.201Z,985.25
2018-06-07T04:08:20.947Z,985.21
2018-06-07T04:09:30.693Z,985.21
2018-06-07T04:10:40.175Z,985.19
2018-06-07T04:11:50.183Z,985.2
2018-06-07T04:13:00.194Z,985.26
2018-06-07T04:14:09.671Z,985.26
2018-06-07T04:15:19.145Z,985.24
2018-06-07T04:16:29.157Z,985.23
2018-06-07T04:17:38.629Z,985.31
2018-06-07T04:18:48.101Z,985.29
2018-06-07T04:19:58.109Z,985.31
2018-06-07T04:21:07.582Z,985.31
2018-06-07T04:22:17.597Z,985.27
2018-06-07T04:23:27.609Z,985.26
2018-06-07T04:24:37.643Z,985.3
2018-06-07T04:25:47.388Z,985.29
2018-06-07T04:26:57.395Z,985.27
2018-06-07T04:28:07.136Z,985.25
2018-06-07T04:29:17.145Z,985.23
2018-06-07T04:30:26.933Z,985.23
2018-06-07T04:31:36.968Z,985.23
2018-06-07T04:32:46.716Z,985.26
2018-06-07T04:33:56.190Z,985.25
2018-06-07T04:35:05.932Z,985.27
2018-06-07T04:36:15.946Z,985.27
2018-06-07T04:37:25.709Z,985.26
2018-06-07T04:38:35.459Z,985.23
2018-06-07T04:39:45.469Z,985.25
2018-06-07T04:40:55.478Z,985.26
2018-06-07T04:42:05.496Z,985.32
2018-06-07T04:43:15.240Z,985.33
2018-06-07T04:44:25.248Z,985.33
2018-06-07T04:45:34.987Z,985.31
2018-06-07T04:46:45.020Z,985.32
2018-06-07T04:47:55.033Z,985.36
2018-06-07T04:49:04.770Z,985.35
2018-06-07T04:50:14.785Z,985.3
2018-06-07T04:51:24.789Z,985.3
2018-06-07T04:52:34.803Z,985.33
2018-06-07T04:53:44.549Z,985.32
2018-06-07T04:54:54.556Z,985.29
2018-06-07T04:56:04.565Z,985.28
2018-06-07T04:57:14.309Z,985.32
2018-06-07T04:58:24.062Z,985.27
2018-06-07T04:59:33.799Z,985.29
2018-06-07T05:00:43.541Z,985.3
2018-06-07T05:01:53.290Z,985.31
2018-06-07T05:03:03.303Z,985.35
2018-06-07T05:04:12.783Z,985.36
2018-06-07T05:05:22.802Z,985.35
2018-06-07T05:06:32.290Z,985.32
2018-06-07T05:07:42.681Z,985.36
2018-06-07T05:08:52.423Z,985.39
2018-06-07T05:10:02.160Z,985.38
2018-06-07T05:11:11.916Z,985.4
2018-06-07T05:12:21.987Z,985.39
2018-06-07T05:13:31.612Z,985.37
2018-06-07T05:14:41.361Z,985.38
2018-06-07T05:15:51.380Z,985.43
2018-06-07T05:17:01.129Z,985.41
2018-06-07T05:18:10.874Z,985.4
2018-06-07T05:19:20.612Z,985.41
2018-06-07T05:20:30.623Z,985.39
2018-06-07T05:21:40.636Z,985.4
2018-06-07T05:22:50.648Z,985.39
2018-06-07T05:24:00.656Z,985.42
2018-06-07T05:25:10.668Z,985.41
2018-06-07T05:26:20.678Z,985.37
2018-06-07T05:27:30.435Z,985.35
2018-06-07T05:28:40.448Z,985.31
2018-06-07T05:29:50.469Z,985.31
2018-06-07T05:31:00.498Z,985.27
2018-06-07T05:32:09.977Z,985.27
2018-06-07T05:33:19.462Z,985.29
2018-06-07T05:34:29.473Z,985.31
2018-06-07T05:35:39.218Z,985.31
2018-06-07T05:36:49.238Z,985.29
2018-06-07T05:37:59.250Z,985.25
2018-06-07T05:39:09.196Z,985.28
2018-06-07T05:40:18.952Z,985.3
2018-06-07T05:41:28.696Z,985.29
2018-06-07T05:42:38.441Z,985.29
2018-06-07T05:43:48.469Z,985.34
2018-06-07T05:44:58.479Z,985.33
2018-06-07T05:46:08.233Z,985.34
2018-06-07T05:47:18.245Z,985.3
2018-06-07T05:48:27.985Z,985.3
2018-06-07T05:49:38.001Z,985.29
2018-06-07T05:50:47.755Z,985.29
2018-06-07T05:51:57.767Z,985.31
2018-06-07T05:53:07.652Z,985.25
2018-06-07T05:54:17.680Z,985.26
2018-06-07T05:55:27.687Z,985.25
2018-06-07T05:56:36.896Z,985.25
2018-06-07T05:57:46.645Z,985.28
2018-06-07T05:58:56.673Z,985.29
2018-06-07T06:00:06.439Z,985.24
2018-06-07T06:01:15.673Z,985.28
2018-06-07T06:02:25.754Z,985.29
2018-06-07T06:03:35.576Z,985.32
2018-06-07T06:04:45.064Z,985.32
2018-06-07T06:05:54.815Z,985.33
2018-06-07T06:07:04.566Z,985.32
2018-06-07T06:08:14.648Z,985.35
2018-06-07T06:09:24.806Z,985.34
2018-06-07T06:10:34.544Z,985.31
2018-06-07T06:11:44.290Z,985.33
2018-06-07T06:12:54.305Z,985.33
2018-06-07T06:14:04.313Z,985.35
2018-06-07T06:15:14.323Z,985.38
2018-06-07T06:16:24.062Z,985.33
2018-06-07T06:17:33.812Z,985.37
2018-06-07T06:18:43.286Z,985.37
2018-06-07T06:19:53.027Z,985.36
2018-06-07T06:21:02.241Z,985.34
2018-06-07T06:22:11.986Z,985.34
2018-06-07T06:23:21.198Z,985.36
2018-06-07T06:24:30.945Z,985.33
2018-06-07T06:25:40.955Z,985.31
2018-06-07T06:26:50.727Z,985.3
2018-06-07T06:28:00.792Z,985.32
2018-06-07T06:29:10.544Z,985.32
2018-06-07T06:30:20.557Z,985.31
2018-06-07T06:31:30.572Z,985.28
2018-06-07T06:32:40.578Z,985.3
2018-06-07T06:33:50.054Z,985.28
2018-06-07T06:35:00.078Z,985.3
2018-06-07T06:36:09.825Z,985.29
2018-06-07T06:37:19.842Z,985.3
2018-06-07T06:38:29.582Z,985.29
2018-06-07T06:39:39.328Z,985.25
2018-06-07T06:40:49.070Z,985.26
2018-06-07T06:41:59.091Z,985.25
2018-06-07T06:43:08.568Z,985.23
2018-06-07T06:44:18.579Z,985.26
2018-06-07T06:45:28.331Z,985.25
2018-06-07T06:46:37.545Z,985.24
2018-06-07T06:47:47.289Z,985.26
2018-06-07T06:48:57.303Z,985.24
2018-06-07T06:50:07.359Z,985.19
2018-06-07T06:51:16.837Z,985.23
2018-06-07T06:52:26.590Z,985.22
2018-06-07T06:53:36.601Z,985.18
2018-06-07T06:54:46.344Z,985.18
2018-06-07T06:55:55.872Z,985.17
2018-06-07T06:57:05.918Z,985.18
2018-06-07T06:58:15.833Z,985.18
2018-06-07T06:59:25.842Z,985.2
2018-06-07T07:00:35.588Z,985.19
2018-06-07T07:01:45.596Z,985.22
2018-06-07T07:02:55.606Z,985.25
2018-06-07T07:04:05.622Z,985.24
2018-06-07T07:05:15.794Z,985.26
2018-06-07T07:06:25.537Z,985.25
2018-06-07T07:07:35.549Z,985.26
2018-06-07T07:08:45.562Z,985.3
2018-06-07T07:09:55.357Z,985.28
2018-06-07T07:11:05.376Z,985.28
2018-06-07T07:12:15.381Z,985.25
2018-06-07T07:13:25.124Z,985.25
2018-06-07T07:14:34.598Z,985.27
2018-06-07T07:15:44.606Z,985.31
2018-06-07T07:16:54.621Z,985.34
2018-06-07T07:18:04.376Z,985.31
2018-06-07T07:19:14.394Z,985.29
2018-06-07T07:20:24.412Z,985.32
2018-06-07T07:21:34.428Z,985.33
2018-06-07T07:22:44.436Z,985.31
2018-06-07T07:23:53.654Z,985.32
2018-06-07T07:25:02.601Z,985.31
2018-06-07T07:26:12.345Z,985.34
2018-06-07T07:27:22.360Z,985.36
2018-06-07T07:28:32.108Z,985.35
2018-06-07T07:29:42.116Z,985.29
2018-06-07T07:30:51.589Z,985.3
2018-06-07T07:32:00.804Z,985.32
2018-06-07T07:33:10.548Z,985.28
2018-06-07T07:34:20.569Z,985.3
2018-06-07T07:35:30.437Z,985.28
2018-06-07T07:36:39.743Z,985.31
2018-06-07T07:37:49.529Z,985.29
2018-06-07T07:38:59.462Z,985.27
2018-06-07T07:40:09.277Z,985.26
2018-06-07T07:41:19.302Z,985.28
2018-06-07T07:42:29.068Z,985.22
2018-06-07T07:43:38.851Z,985.28
2018-06-07T07:44:48.599Z,985.25
2018-06-07T07:45:58.354Z,985.28
2018-06-07T07:47:08.138Z,985.29
2018-06-07T07:48:17.885Z,985.25
2018-06-07T07:49:27.365Z,985.23
2018-06-07T07:50:37.427Z,985.25
2018-06-07T07:51:46.956Z,985.26
2018-06-07T07:52:56.440Z,985.25
2018-06-07T07:54:06.454Z,985.27
2018-06-07T07:55:16.196Z,985.3
2018-06-07T07:56:26.207Z,985.27
2018-06-07T07:57:36.223Z,985.29
2018-06-07T07:58:45.970Z,985.24
2018-06-07T07:59:55.993Z,985.31
2018-06-07T08:01:06.021Z,985.25
2018-06-07T08:02:15.774Z,985.24
2018-06-07T08:03:25.251Z,985.23
2018-06-07T08:04:35.262Z,985.23
2018-06-07T08:05:45.024Z,985.25
2018-06-07T08:06:55.045Z,985.25
2018-06-07T08:08:05.061Z,985.22
2018-06-07T08:09:14.545Z,985.27
2018-06-07T08:10:24.562Z,985.22
2018-06-07T08:11:34.573Z,985.2
2018-06-07T08:12:44.585Z,985.23
2018-06-07T08:13:54.335Z,985.21
2018-06-07T08:15:04.358Z,985.23
2018-06-07T08:16:14.160Z,985.2
2018-06-07T08:17:23.936Z,985.23
2018-06-07T08:18:33.949Z,985.19
2018-06-07T08:19:43.958Z,985.22
2018-06-07T08:20:53.965Z,985.23
2018-06-07T08:22:03.721Z,985.22
2018-06-07T08:23:13.202Z,985.19
2018-06-07T08:24:23.210Z,985.18
2018-06-07T08:25:32.689Z,985.17
2018-06-07T08:26:42.705Z,985.14
2018-06-07T08:27:52.197Z,985.15
2018-06-07T08:29:02.271Z,985.18
2018-06-07T08:30:12.022Z,985.16
2018-06-07T08:31:21.773Z,985.17
2018-06-07T08:32:31.525Z,985.15
2018-06-07T08:33:41.279Z,985.13
2018-06-07T08:34:51.300Z,985.12
2018-06-07T08:36:01.328Z,985.1
2018-06-07T08:37:11.344Z,985.2
2018-06-07T08:38:20.826Z,985.14
2018-06-07T08:39:30.620Z,985.15
2018-06-07T08:40:41.030Z,985.13
2018-06-07T08:41:51.058Z,985.12
2018-06-07T08:43:00.544Z,985.12
2018-06-07T08:44:10.289Z,985.1
2018-06-07T08:45:20.319Z,985.14
2018-06-07T08:46:30.333Z,985.12
2018-06-07T08:47:40.345Z,985.09
2018-06-07T08:48:50.408Z,985.1
2018-06-07T08:50:00.435Z,985.08
2018-06-07T08:51:10.452Z,985.11
2018-06-07T08:52:20.332Z,985.08
2018-06-07T08:53:29.828Z,985.05
2018-06-07T08:54:41.845Z,985.03
2018-06-07T08:55:51.863Z,985.09
2018-06-07T08:57:01.382Z,985.08
2018-06-07T08:58:11.396Z,985.07
2018-06-07T08:59:21.401Z,985.03
2018-06-07T09:00:31.167Z,985.04
2018-06-07T09:01:41.550Z,985.03
2018-06-07T09:02:51.563Z,984.99
2018-06-07T09:04:01.581Z,985.01
2018-06-07T09:05:11.064Z,984.95
2018-06-07T09:06:20.813Z,984.97
2018-06-07T09:07:30.834Z,984.95
2018-06-07T09:08:40.579Z,984.97
2018-06-07T09:09:50.591Z,984.98
2018-06-07T09:11:00.603Z,984.91
2018-06-07T09:12:10.616Z,984.94
2018-06-07T09:13:20.629Z,984.92
2018-06-07T09:14:30.382Z,984.87
2018-06-07T09:15:40.398Z,984.94
2018-06-07T09:16:49.880Z,984.88
2018-06-07T09:17:59.360Z,984.92
2018-06-07T09:19:09.388Z,984.91
2018-06-07T09:20:19.403Z,984.93
2018-06-07T09:21:28.926Z,984.88
2018-06-07T09:22:38.937Z,984.9
2018-06-07T09:23:48.420Z,984.93
2018-06-07T09:24:57.900Z,984.94
2018-06-07T09:26:07.430Z,984.91
2018-06-07T09:27:17.244Z,984.92
2018-06-07T09:28:26.727Z,984.94
2018-06-07T09:29:36.745Z,984.95
2018-06-07T09:30:46.849Z,984.92
2018-06-07T09:31:57.163Z,984.93
2018-06-07T09:33:07.180Z,984.89
2018-06-07T09:34:16.929Z,984.9
2018-06-07T09:35:27.075Z,984.9
2018-06-07T09:36:36.823Z,984.89
2018-06-07T09:37:46.840Z,984.9
2018-06-07T09:38:56.057Z,984.91
2018-06-07T09:40:05.805Z,984.93
2018-06-07T09:41:15.821Z,984.92
2018-06-07T09:42:25.567Z,984.92
2018-06-07T09:43:35.315Z,984.93
2018-06-07T09:44:45.065Z,984.94
2018-06-07T09:45:55.085Z,984.91
2018-06-07T09:47:06.860Z,984.96
2018-06-07T09:48:16.876Z,984.95
2018-06-07T09:49:26.890Z,984.94
2018-06-07T09:50:36.370Z,984.94
2018-06-07T09:51:46.384Z,984.92
2018-06-07T09:52:56.145Z,984.93
2018-06-07T09:54:06.105Z,984.89
2018-06-07T09:55:15.861Z,984.86
2018-06-07T09:56:25.876Z,984.86
2018-06-07T09:57:35.924Z,984.85
2018-06-07T09:58:45.940Z,984.79
2018-06-07T09:59:55.418Z,984.81
2018-06-07T10:01:05.172Z,984.82
2018-06-07T10:02:15.192Z,984.81
2018-06-07T10:03:25.217Z,984.78
2018-06-07T10:04:35.291Z,984.73
2018-06-07T10:05:45.045Z,984.75
2018-06-07T10:06:54.529Z,984.73
2018-06-07T10:08:04.009Z,984.72
2018-06-07T10:09:14.019Z,984.68
2018-06-07T10:10:24.090Z,984.67
2018-06-07T10:11:34.101Z,984.61
2018-06-07T10:12:43.847Z,984.61
2018-06-07T10:13:53.862Z,984.62
2018-06-07T10:15:03.894Z,984.61
2018-06-07T10:16:13.662Z,984.62
2018-06-07T10:17:23.867Z,984.62
2018-06-07T10:18:33.672Z,984.65
2018-06-07T10:19:43.423Z,984.62
2018-06-07T10:20:53.178Z,984.65
2018-06-07T10:22:03.026Z,984.61
2018-06-07T10:23:12.241Z,984.6
2018-06-07T10:24:22.257Z,984.58
2018-06-07T10:25:31.736Z,984.56
2018-06-07T10:26:41.216Z,984.57
2018-06-07T10:27:51.031Z,984.52
2018-06-07T10:29:01.041Z,984.54
2018-06-07T10:30:11.182Z,984.5
2018-06-07T10:31:21.204Z,984.49
2018-06-07T10:32:30.953Z,984.53
2018-06-07T10:33:40.701Z,984.53
2018-06-07T10:34:50.463Z,984.5
2018-06-07T10:36:00.479Z,984.49
2018-06-07T10:37:09.964Z,984.45
2018-06-07T10:38:19.985Z,984.45
2018-06-07T10:39:31.998Z,984.46
2018-06-07T10:40:41.790Z,984.41
2018-06-07T10:41:51.953Z,984.42
2018-06-07T10:43:01.968Z,984.38
2018-06-07T10:44:10.929Z,984.4
2018-06-07T10:45:20.144Z,984.34
2018-06-07T10:46:29.636Z,984.32
2018-06-07T10:47:39.654Z,984.34
2018-06-07T10:48:49.674Z,984.29
2018-06-07T10:49:59.691Z,984.28
2018-06-07T10:51:09.832Z,984.29
2018-06-07T10:52:19.595Z,984.3
2018-06-07T10:53:29.096Z,984.3
2018-06-07T10:54:38.845Z,984.32
2018-06-07T10:55:48.599Z,984.31
2018-06-07T10:56:58.666Z,984.33
2018-06-07T10:58:08.421Z,984.29
2018-06-07T10:59:18.461Z,984.28
2018-06-07T11:00:28.216Z,984.26
2018-06-07T11:01:38.233Z,984.27
2018-06-07T11:02:48.349Z,984.27
2018-06-07T11:03:57.827Z,984.29
2018-06-07T11:05:06.784Z,984.26
2018-06-07T11:06:16.800Z,984.23
2018-06-07T11:07:26.555Z,984.26
2018-06-07T11:08:36.569Z,984.2
2018-06-07T11:09:46.640Z,984.22
2018-06-07T11:10:56.674Z,984.18
2018-06-07T11:12:06.429Z,984.19
2018-06-07T11:13:16.457Z,984.21
2018-06-07T11:14:26.600Z,984.15
2018-06-07T11:15:36.685Z,984.2
2018-06-07T11:16:46.723Z,984.21
2018-06-07T11:17:56.491Z,984.17
2018-06-07T11:19:06.252Z,984.23
2018-06-07T11:20:16.121Z,984.15
2018-06-07T11:21:26.134Z,984.07
2018-06-07T11:22:35.882Z,984.08
2018-06-07T11:23:46.031Z,984.11
2018-06-07T11:24:56.439Z,984.11
2018-06-07T11:26:06.187Z,984.09
2018-06-07T11:27:15.670Z,984.08
2018-06-07T11:28:25.426Z,984.08
2018-06-07T11:29:35.446Z,984.01
2018-06-07T11:30:45.195Z,984.04
2018-06-07T11:31:54.670Z,984.07
2018-06-07T11:33:04.422Z,984.04
2018-06-07T11:34:14.184Z,984.03
2018-06-07T11:35:24.198Z,984.07
2018-06-07T11:36:33.960Z,984.06
2018-06-07T11:37:43.986Z,984.1
2018-06-07T11:38:53.731Z,984.16
2018-06-07T11:40:03.212Z,984.15
2018-06-07T11:41:12.709Z,984.18
2018-06-07T11:42:22.470Z,984.16
2018-06-07T11:43:32.224Z,984.18
2018-06-07T11:44:41.974Z,984.16
2018-06-07T11:45:52.065Z,984.14
2018-06-07T11:47:02.109Z,984.1
2018-06-07T11:48:12.137Z,984.09
2018-06-07T11:49:22.157Z,984.08
2018-06-07T11:50:31.919Z,984.09
2018-06-07T11:51:41.682Z,984.05
2018-06-07T11:52:50.924Z,984.07
2018-06-07T11:54:00.702Z,984.08
2018-06-07T11:55:10.744Z,984.01
2018-06-07T11:56:20.766Z,983.99
2018-06-07T11:57:30.530Z,983.94
2018-06-07T11:58:40.560Z,983.94
2018-06-07T11:59:50.582Z,983.96
2018-06-07T12:01:00.078Z,983.93
2018-06-07T12:02:09.840Z,983.93
2018-06-07T12:03:19.870Z,983.94
2018-06-07T12:04:29.902Z,983.94
2018-06-07T12:05:39.662Z,983.88
2018-06-07T12:06:49.151Z,983.84
2018-06-07T12:07:58.915Z,983.83
2018-06-07T12:09:08.947Z,983.86
2018-06-07T12:10:18.707Z,983.84
2018-06-07T12:11:28.746Z,983.78
2018-06-07T12:12:38.518Z,983.79
2018-06-07T12:13:48.613Z,983.82
2018-06-07T12:14:58.107Z,983.82
2018-06-07T12:16:07.336Z,983.8
2018-06-07T12:17:16.573Z,983.79
2018-06-07T12:18:26.071Z,983.79
2018-06-07T12:19:36.096Z,983.81
2018-06-07T12:20:46.120Z,983.76
2018-06-07T12:21:56.202Z,983.78
2018-06-07T12:23:06.231Z,983.82
2018-06-07T12:24:15.725Z,983.81
2018-06-07T12:25:25.760Z,983.73
2018-06-07T12:26:35.524Z,983.8
2018-06-07T12:27:45.291Z,983.85
2018-06-07T12:28:55.055Z,983.76
2018-06-07T12:30:04.825Z,983.7
2018-06-07T12:31:14.869Z,983.69
2018-06-07T12:32:24.900Z,983.66
2018-06-07T12:33:34.931Z,983.64
2018-06-07T12:34:44.967Z,983.63
2018-06-07T12:35:55.005Z,983.62
2018-06-07T12:37:04.771Z,983.56
2018-06-07T12:38:14.570Z,983.57
2018-06-07T12:39:24.338Z,983.58
2018-06-07T12:40:34.431Z,983.57
2018-06-07T12:41:44.475Z,983.58
2018-06-07T12:42:54.525Z,983.54
2018-06-07T12:44:04.566Z,983.53
2018-06-07T12:45:13.804Z,983.52
2018-06-07T12:46:23.307Z,983.54
2018-06-07T12:47:33.068Z,983.54
2018-06-07T12:48:43.111Z,983.52
2018-06-07T12:49:52.881Z,983.58
2018-06-07T12:51:02.671Z,983.51
2018-06-07T12:52:12.485Z,983.51
2018-06-07T12:53:22.514Z,983.51
2018-06-07T12:54:32.548Z,983.51
2018-06-07T12:55:42.314Z,983.52
2018-06-07T12:56:52.096Z,983.5
2018-06-07T12:58:01.905Z,983.51
2018-06-07T12:59:11.709Z,983.53
2018-06-07T13:00:21.471Z,983.45
2018-06-07T13:01:30.733Z,983.48
2018-06-07T13:02:40.507Z,983.44
2018-06-07T13:03:49.739Z,983.49
2018-06-07T13:04:59.243Z,983.4
2018-06-07T13:06:09.017Z,983.43
2018-06-07T13:07:18.519Z,983.44
2018-06-07T13:08:28.560Z,983.4
2018-06-07T13:09:38.326Z,983.43
2018-06-07T13:10:48.091Z,983.39
2018-06-07T13:11:58.136Z,983.42
2018-06-07T13:13:07.635Z,983.45
2018-06-07T13:14:17.680Z,983.49
2018-06-07T13:15:27.454Z,983.48
2018-06-07T13:16:36.958Z,983.41
2018-06-07T13:17:46.997Z,983.44
2018-06-07T13:18:56.764Z,983.49
2018-06-07T13:20:06.539Z,983.52
2018-06-07T13:21:16.578Z,983.53
2018-06-07T13:22:25.808Z,983.56
2018-06-07T13:23:35.575Z,983.57
2018-06-07T13:24:45.609Z,983.52
2018-06-07T13:25:55.648Z,983.59
2018-06-07T13:27:05.421Z,983.59
2018-06-07T13:28:14.659Z,983.6
2018-06-07T13:29:23.906Z,983.66
2018-06-07T13:30:33.944Z,983.7
2018-06-07T13:31:43.187Z,983.67
2018-06-07T13:32:52.951Z,983.64
2018-06-07T13:34:02.763Z,983.62
2018-06-07T13:35:12.846Z,983.61
2018-06-07T13:36:22.613Z,983.52
2018-06-07T13:37:32.644Z,983.57
2018-06-07T13:38:42.675Z,983.67
2018-06-07T13:39:52.710Z,983.63
2018-06-07T13:41:02.479Z,983.6
2018-06-07T13:42:11.982Z,983.69
2018-06-07T13:43:22.021Z,983.69
2018-06-07T13:44:31.524Z,983.66
2018-06-07T13:45:41.292Z,983.66
2018-06-07T13:46:51.333Z,983.66
2018-06-07T13:48:00.567Z,983.61
2018-06-07T13:49:10.605Z,983.62
2018-06-07T13:50:20.640Z,983.71
2018-06-07T13:51:30.787Z,983.7
2018-06-07T13:52:40.551Z,983.69
2018-06-07T13:53:50.325Z,983.64
2018-06-07T13:55:00.088Z,983.6
2018-06-07T13:56:10.132Z,983.61
2018-06-07T13:57:20.168Z,983.71
2018-06-07T13:58:30.204Z,983.69
2018-06-07T13:59:40.236Z,983.74
2018-06-07T14:00:49.735Z,983.73
2018-06-07T14:01:59.232Z,983.73
2018-06-07T14:03:11.272Z,983.78
2018-06-07T14:04:21.303Z,983.75
2018-06-07T14:05:30.799Z,983.69
2018-06-07T14:06:40.561Z,983.8
2018-06-07T14:07:50.073Z,983.87
2018-06-07T14:08:59.566Z,983.87
2018-06-07T14:10:09.601Z,983.85
2018-06-07T14:11:19.395Z,983.85
2018-06-07T14:12:29.163Z,983.75
2018-06-07T14:13:39.192Z,983.66
2018-06-07T14:14:49.226Z,983.57
2018-06-07T14:15:59.265Z,983.51
2018-06-07T14:17:09.299Z,983.52
2018-06-07T14:18:19.535Z,983.51
2018-06-07T14:19:29.567Z,983.49
2018-06-07T14:20:39.334Z,983.52
2018-06-07T14:21:49.372Z,983.58
2018-06-07T14:22:59.401Z,983.71
2018-06-07T14:24:09.435Z,983.65
2018-06-07T14:25:19.202Z,983.67
2018-06-07T14:26:28.973Z,983.83
2018-06-07T14:27:38.739Z,983.82
2018-06-07T14:28:47.708Z,983.58
2018-06-07T14:29:57.469Z,983.5
2018-06-07T14:31:06.971Z,983.65
2018-06-07T14:32:17.009Z,983.91
2018-06-07T14:33:26.773Z,984.12
2018-06-07T14:34:36.823Z,984.21
2018-06-07T14:35:46.858Z,984.26
2018-06-07T14:36:56.624Z,984.47